Chachapoyas, Peru
Current Conditions -  °F | °C
As of 1:00 PM on Thursday 23 Oct 2014 (Local Time) from SPJR Reporting Station
Rain Showers Rain Showers  
Wind Chill: 19°   Ceiling: 4000
Heat Index: 19°   Visibility: 6mi
Dew Point: 11°   Wind: 8mph
Humidity: 60%   Direction: 120°ESE
Pressure: 30.33"   Gusts: NA
Location:  6.23°S, 77.87°W
Report Text: SPJR 231800Z 12007KT 9999 VCSH SCT023 BKN040 19/11 Q1027 RMK PP000
Loading
Personal Weather Stations






























Interactive Weather Map
Tropical Storm Tracking
New forecast layout! Learn more

10-Day Weather Forecast

Advertisements
Track Severe Weather on mobile